Carson Valley, Nevada Weather observations

Data are for 10 minute period ending at time listed.
 Day   Time   Solar   Ave.   Ave.  Ave.  Vector  Max.   Baro.   Total    
  of    of     Rad.   Air    Rel.  Wind   Wind   Wind  Press.  Precip.   
Year   Day            Temp.  Hum.  Speed  Dir.   Gust                    
2020   (PST)  Kw/m2    F      %     mph   deg.    mph    mb.     in.     
-------------------------------------------------------------------------
 267   21:00   0.00   55.1    44    2.3   294     7.8   859.3    0.00 
 267   21:10   0.00   55.2    42    2.3   118     5.0   859.3    0.00 
 267   21:20   0.00   54.4    42    2.3   172     6.0   859.4    0.00 
 267   21:30   0.00   59.5    31    2.2   125     4.2   859.3    0.00 
 267   21:40   0.00   59.8    31    3.2   144     4.2   859.3    0.00 
 267   21:50   0.00   58.2    33    2.8   155     3.8   859.4    0.00 
 267   22:00   0.00   55.7    37    4.6   101     6.4   859.4    0.00 
 267   22:10   0.00   52.1    43    2.3   247     4.5   859.4    0.00 
 267   22:20   0.00   56.9    33    1.9   213     3.6   859.4    0.00 
 267   22:30   0.00   55.6    37    4.7   140     7.7   859.4    0.00 
 267   22:40   0.00   54.9    37    3.1   143     5.3   859.4    0.00 
 267   22:50   0.00   54.0    39    6.5   107     8.7   859.3    0.00 
 267   23:00   0.00   54.2    39    4.4   115     9.1   859.3    0.00 
 267   23:10   0.00   52.0    46    6.2   129     8.8   859.4    0.00 
 267   23:20   0.00   50.1    50    3.6   214     9.8   859.5    0.00 
 267   23:30   0.00   48.7    54    1.6   223     5.1   859.5    0.00 
 267   23:40   0.00   47.5    56    1.4   344     4.1   859.5    0.00 
 267   23:50   0.00   47.6    55    2.6    95     4.6   859.4    0.00 
 268    0:00   0.00   45.4    60    4.5   120     6.9   859.4    0.00 
 268    0:10   0.00   44.6    62    3.4   168     9.3   859.3    0.00 
 268    0:20   0.00   45.0    62    2.0   191     6.0   859.3    0.00 
 268    0:30   0.00   47.2    56    1.7    37     7.0   859.4    0.00 
 268    0:40   0.00   46.3    59    0.2   184     2.9   859.4    0.00 
 268    0:50   0.00   45.1    64    1.6   226     5.6   859.5    0.00 
 268    1:00   0.00   46.1    61    2.8   258     5.6   859.4    0.00 
 268    1:10   0.00   45.9    60    2.3   134     4.7   859.4    0.00 
 268    1:20   0.00   41.7    66    3.0   360     7.1   859.4    0.00 
 268    1:30   0.00   38.7    74    3.2    80     5.9   859.4    0.00 
 268    1:40   0.00   39.5    76    2.3   347     8.4   859.4    0.00 
 268    1:50   0.00   41.0    72    3.6   252     6.9   859.4    0.00 
 268    2:00   0.00   41.9    70    2.8   353     8.3   859.3    0.00 
 268    2:10   0.00   40.7    72    2.4   156     7.7   859.3    0.00 
 268    2:20   0.00   41.6    69    3.4   226     6.4   859.2    0.00 
 268    2:30   0.00   41.1    72    1.9   297     4.7   859.1    0.00 
 268    2:40   0.00   39.5    73    4.3   178     7.2   859.0    0.00 
 268    2:50   0.00   39.5    73    1.6   177     6.1   859.0    0.00 
 268    3:00   0.00   40.6    71    4.0   177     8.4   859.1    0.00 
 268    3:10   0.00   40.3    70    1.5   189     5.9   859.1    0.00 
 268    3:20   0.00   39.6    70    0.7    55     4.4   859.0    0.00 
 268    3:30   0.00   37.2    76    2.0    96     6.8   859.0    0.00 
 268    3:40   0.00   37.3    76    4.2    44     9.3   859.0    0.00 
 268    3:50   0.00   37.6    78    3.9   211     9.7   859.1    0.00 
 268    4:00   0.00   37.8    76    3.5   140     9.9   859.1    0.00 
 268    4:10   0.00   39.1    72    3.5   110     8.4   859.0    0.00 
 268    4:20   0.00   41.4    64    4.6   181     8.1   859.1    0.00 
 268    4:30   0.00   41.3    66    4.0   160     9.3   859.1    0.00 
 268    4:40   0.00   42.0    64    3.4   181     9.7   859.2    0.00 
 268    4:50   0.00   41.1    66    3.9   166     8.0   859.2    0.00 
 268    5:00   0.00   41.5    63    3.7   181     9.7   859.2    0.00 
 268    5:10   0.00   42.6    60    3.4   199     8.0   859.2    0.00 
 268    5:20   0.00   48.9    45    3.2   301    12.5   859.3    0.00 
 268    5:30   0.00   44.7    54    3.3   208     6.2   859.3    0.00 
 268    5:40   0.00   41.4    62    2.6   269     5.0   859.5    0.00 
 268    5:50   0.00   40.9    64    3.2   222     7.9   859.5    0.00 
 268    6:00   0.00   41.1    62    2.5   183     5.9   859.5    0.00 
 268    6:10   0.01   40.7    64    4.3   180     8.6   859.6    0.00 
 268    6:20   0.06   41.0    65    2.5   161     5.4   859.5    0.00 
 268    6:30   0.08   40.9    67    2.5    23     4.9   859.6    0.00 
 268    6:40   0.11   41.4    68    2.4   331     6.9   859.7    0.00 
 268    6:50   0.14   43.9    67    3.1   335     7.1   859.5    0.00 
 268    7:00   0.17   45.9    64    2.3   183     6.6   859.5    0.00 
 268    7:10   0.21   48.0    58    2.1   209     3.7   859.3    0.00 
 268    7:20   0.24   51.1    53    2.3   174     4.7   859.2    0.00 
 268    7:30   0.28   53.7    48    2.3   221     4.5   859.2    0.00 
 268    7:40   0.31   55.6    48    0.7   206     3.1   859.1    0.00 
 268    7:50   0.34   56.4    44    0.7   276     2.8   859.2    0.00 
 268    8:00   0.38   57.6    43    2.0   307     4.9   859.1    0.00 
 268    8:10   0.41   58.6    36    1.6   275     3.5   859.2    0.00 
 268    8:20   0.44   61.0    33    2.1   323     4.0   859.3    0.00 
 268    8:30   0.48   63.7    28    1.9   358     4.1   859.4    0.00 
 268    8:40   0.51   65.9    26    2.2   313     5.6   859.5    0.00 
 268    8:50   0.54   66.9    25    1.9   334     4.2   859.5    0.00 
 268    9:00   0.57   69.0    23    2.7    45     4.6   859.6    0.00 
 268    9:10   0.59   70.1    22    3.3    28     6.2   859.5    0.00 
 268    9:20   0.62   72.0    19    0.9    45     4.2   859.5    0.00 
 268    9:30   0.64   73.3    19    2.8    88     6.0   859.4    0.00 
 268    9:40   0.67   74.0    18    1.7   152     4.2   859.4    0.00 
 268    9:50   0.69   74.8    18    1.3   247     3.9   859.4    0.00 
 268   10:00   0.71   76.4    16    1.4   100     4.5   859.3    0.00 
 268   10:10   0.72   77.1    15    3.8    84     7.7   859.1    0.00 
 268   10:20   0.74   77.5    14    3.9    86     8.0   858.9    0.00 
 268   10:30   0.76   78.4    12    2.6   119     8.5   858.8    0.00 
 268   10:40   0.77   79.5    12    3.7   118     9.1   858.7    0.00 
 268   10:50   0.78   80.5    12    4.7   213     9.6   858.5    0.00 
 268   11:00   0.79   81.1    12    8.5   226    15.3   858.4    0.00 
 268   11:10   0.80   80.0    11   11.0   286    29.6   858.2    0.00 
 268   11:20   0.80   81.1    11    5.7   222    13.2   858.1    0.00 
 268   11:30   0.81   80.8    12   16.4   261    27.1   858.0    0.00 
 268   11:40   0.82   80.8    12   16.4   262    28.1   857.9    0.00 
 268   11:50   0.76   80.7    12   19.0   252    27.0   857.9    0.00 
 268   12:00   0.79   80.5    11   16.2   245    29.4   857.9    0.00 
 268   12:10   0.81   81.4    12   16.2   258    26.7   857.7    0.00 
 268   12:20   0.80   81.3    12   16.8   268    25.4   857.6    0.00 
 268   12:30   0.80   81.3    12   16.7   274    27.8   857.5    0.00 
 268   12:40   0.79   81.3    12   17.7   271    28.3   857.4    0.00 
 268   12:50   0.78   81.2    12   20.2   262    27.8   857.4    0.00 
 268   13:00   0.77   81.2    12   19.6   268    28.4   857.3    0.00 
 268   13:10   0.75   81.2    12   17.7   271    25.3   857.3    0.00 
 268   13:20   0.74   81.1    13   17.7   263    27.7   857.3    0.00 
 268   13:30   0.73   80.8    12   19.0   259    27.1   857.3    0.00 
 268   13:40   0.71   80.5    13   14.9   268    26.7   857.3    0.00 
 268   13:50   0.69   80.7    13   16.2   254    26.2   857.2    0.00 
 268   14:00   0.67   80.8    14   14.9   256    24.2   857.1    0.00 
 268   14:10   0.65   80.8    14   13.0   259    19.6   857.0    0.00 
 268   14:20   0.64   80.7    13   16.2   251    28.1   856.8    0.00 
 268   14:30   0.61   80.8    13   13.3   260    20.8   856.8    0.00 
 268   14:40   0.57   80.4    14   13.4   263    23.5   856.8    0.00 
 268   14:50   0.59   80.3    12   15.0   263    27.4   856.7    0.00 
 268   15:00   0.56   80.0    12   15.6   267    29.5   856.6    0.00 
 268   15:10   0.52   79.5    12   17.5   253    27.5   856.6    0.00 
 268   15:20   0.47   78.9    13   17.8   254    27.0   856.5    0.00 
 268   15:30   0.43   78.4    13   16.3   259    27.6   856.3    0.00 
 268   15:40   0.40   78.2    14   15.4   255    26.8   856.1    0.00 
 268   15:50   0.36   77.9    14   14.9   259    21.8   856.1    0.00 
 268   16:00   0.33   77.5    15   15.5   256    24.6   856.2    0.00 
 268   16:10   0.30   76.9    16   15.9   254    26.0   856.4    0.00 
 268   16:20   0.27   76.3    15   17.8   256    28.9   856.6    0.00 
 268   16:30   0.23   76.0    16   13.0   240    23.8   856.7    0.00 
 268   16:40   0.20   75.3    17   14.2   235    26.2   856.7    0.00 
 268   16:50   0.17   74.8    18   11.7   252    22.0   856.8    0.00 
 268   17:00   0.14   73.9    19   14.8   244    28.7   856.8    0.00 
 268   17:10   0.08   73.0    19   16.6   257    24.6   856.7    0.00 
 268   17:20   0.02   71.7    21   16.7   246    27.2   856.8    0.00 
 268   17:30   0.02   71.8    21   17.3   243    27.8   856.8    0.00 
 268   17:40   0.01   71.2    22   19.2   247    27.8   856.8    0.00 
 268   17:50   0.01   70.4    24   17.4   253    25.3   856.8    0.00 
 268   18:00   0.01   70.3    24   19.1   262    27.8   856.8    0.00 
 268   18:10   0.00   70.2    25   17.4   274    28.4   856.8    0.00 
 268   18:20   0.00   69.7    26   17.6   261    24.6   856.8    0.00 
 268   18:30   0.00   69.4    27   18.8   269    28.0   856.8    0.00 
 268   18:40   0.00   68.7    28   19.0   272    27.5   856.7    0.00 
 268   18:50   0.00   68.4    28   16.6   273    24.4   856.8    0.00 
 268   19:00   0.00   67.7    30   16.6   275    24.9   856.8    0.00 
 268   19:10   0.00   67.3    30   16.5   282    21.9   856.8    0.00 
 268   19:20   0.00   66.9    31   16.2   289    24.7   856.9    0.00 
 268   19:30   0.00   66.8    31   15.7   285    22.1   856.9    0.00 
 268   19:40   0.00   67.0    28    6.7   168    16.3   857.2    0.00 
 268   19:50   0.00   67.9    25    4.2   291     9.7   857.3    0.00 
 268   20:00   0.00   67.9    23    3.9   218     7.7   857.3    0.00 
 268   20:10   0.00   64.5    26    2.7   156     6.6   857.4    0.00 
 268   20:20   0.00   64.3    24    4.7   262    14.2   857.3    0.00 
 268   20:30   0.00   65.5    21    7.7   242    14.1   857.2    0.00 
 268   20:40   0.00   66.5    20    9.6   240    14.4   857.3    0.00 
 268   20:50   0.00   63.2    26    6.8   216     9.0   857.4    0.00 

Return to Carson Valley graphs page.


Western Regional Climate Center,wrcc@dri.edu